Terminal Aerodrome Forecast
Issued by NWS

Current Version | Previous Version | Text Only | Print | Product List | Glossary On
Versions: 1 2 3 4 5 6 7 8 9 10 11 12
000
FTUS42 TJSJ 261700
TAFJMZ
TAF
TJMZ 261722Z 2618/2718 24010KT P6SM VCSH SCT025 BKN040
      TEMPO 2618/2620 5SM -SHRA BKN030
     FM262230 06005KT P6SM FEW030
     FM271530 24010KT P6SM SCT025 BKN040
      AMD NOT SKED 2622/2715=

USA.gov is the U.S. government's official web portal to all federal, state and local government web resources and services.